Time;durP1;ratioP1;P1;durP2;ratioP2;P2;SDS_P1;SDS_P2;PMS_P1;PMS_P2;Temp;Humidity;BMP_temperature;BMP_pressure;BME280_temperature;BME280_humidity;BME280_pressure;Samples;Min_cycle;Max_cycle;Signal;HPM_P1;HPM_P2
2023/02/26 00:00:45;;;;;;;3.55;0.93;;;;;;;0.37;94.82;100620.91;5096687;29;20551;-78
2023/02/26 00:03:16;;;;;;;4.38;1.02;;;;;;;0.45;95.27;100605.53;5110040;29;20167;-78
2023/02/26 00:05:46;;;;;;;5.22;0.60;;;;;;;0.32;95.35;100609.75;5113712;29;20067;-77
2023/02/26 00:08:16;;;;;;;4.22;0.85;;;;;;;0.21;96.50;100606.25;5105311;29;20522;-77
2023/02/26 00:10:47;;;;;;;2.42;0.80;;;;;;;0.35;96.59;100611.50;5112377;29;20043;-77
2023/02/26 00:13:18;;;;;;;2.58;0.70;;;;;;;0.37;96.60;100609.78;5106113;29;20037;-77
2023/02/26 00:15:55;;;;;;;3.13;0.85;;;;;;;0.38;96.50;100609.78;5110129;29;20042;-78
2023/02/26 00:18:26;;;;;;;2.42;0.60;;;;;;;0.44;97.15;100609.81;5111628;29;20414;-77
2023/02/26 00:20:56;;;;;;;2.90;0.65;;;;;;;0.39;96.95;100618.34;5108536;29;20038;-77
2023/02/26 00:23:26;;;;;;;1.50;0.50;;;;;;;0.31;96.43;100618.31;5114761;29;20386;-76
2023/02/26 00:25:57;;;;;;;1.90;0.60;;;;;;;0.42;97.13;100614.06;5112855;29;20039;-78
2023/02/26 00:28:28;;;;;;;1.75;0.57;;;;;;;0.43;96.88;100614.94;5096643;29;20027;-78
2023/02/26 00:30:58;;;;;;;3.67;0.90;;;;;;;0.36;97.14;100623.50;5108993;29;20065;-77
2023/02/26 00:33:29;;;;;;;1.33;0.60;;;;;;;0.26;97.19;100630.28;5107684;29;20028;-77
2023/02/26 00:36:15;;;;;;;2.63;0.80;;;;;;;0.27;97.03;100641.41;5112606;29;20053;-77
2023/02/26 00:38:58;;;;;;;6.57;1.40;;;;;;;0.18;97.43;100641.38;5109581;29;20023;-78
2023/02/26 00:41:29;;;;;;;4.43;1.17;;;;;;;0.25;97.38;100656.78;5112545;29;20494;-77
2023/02/26 00:44:00;;;;;;;3.28;0.95;;;;;;;0.09;98.04;100652.44;5106438;29;20043;-78
2023/02/26 00:46:42;;;;;;;3.30;0.85;;;;;;;-0.05;98.43;100662.59;5110658;29;20027;-78
2023/02/26 00:49:21;;;;;;;6.15;0.95;;;;;;;0.08;99.13;100670.38;5112988;29;20031;-78
2023/02/26 00:52:02;;;;;;;5.35;1.17;;;;;;;0.07;98.34;100682.34;5098294;29;20059;-77
2023/02/26 00:54:32;;;;;;;1.88;1.00;;;;;;;0.00;99.97;100679.75;5109139;29;20189;-77
2023/02/26 00:57:04;;;;;;;2.28;0.80;;;;;;;0.00;100.00;100683.16;5103275;29;20028;-77
2023/02/26 00:59:34;;;;;;;3.55;1.00;;;;;;;0.01;100.00;100687.44;5110969;29;20503;-77
2023/02/26 01:02:05;;;;;;;4.07;1.13;;;;;;;0.04;100.00;100684.91;5090108;29;20110;-76
2023/02/26 01:04:35;;;;;;;3.40;0.70;;;;;;;0.10;100.00;100684.97;5108027;29;20485;-77
2023/02/26 01:07:08;;;;;;;3.70;0.77;;;;;;;0.22;100.00;100697.88;5109662;29;20062;-74
2023/02/26 01:09:38;;;;;;;3.95;0.82;;;;;;;0.19;100.00;100690.16;5099785;29;20062;-77
2023/02/26 01:12:11;;;;;;;3.22;1.10;;;;;;;0.23;100.00;100691.06;5103531;29;20058;-77
2023/02/26 01:14:42;;;;;;;3.72;0.80;;;;;;;0.19;100.00;100686.75;5095472;29;20023;-77
2023/02/26 01:17:33;;;;;;;4.22;1.02;;;;;;;0.26;100.00;100686.81;5103875;29;20032;-75
2023/02/26 01:20:13;;;;;;;8.68;1.15;;;;;;;0.24;100.00;100692.78;5100568;29;20098;-77
2023/02/26 01:22:55;;;;;;;3.33;0.98;;;;;;;0.30;100.00;100692.81;5107892;29;20291;-78
2023/02/26 01:25:34;;;;;;;3.60;0.82;;;;;;;0.19;100.00;100685.03;5109739;29;20066;-77
2023/02/26 01:28:04;;;;;;;3.20;0.88;;;;;;;0.32;100.00;100686.84;5112393;29;20034;-78
2023/02/26 01:30:35;;;;;;;2.63;0.93;;;;;;;0.17;100.00;100685.84;5090309;29;20502;-76
2023/02/26 01:33:26;;;;;;;3.10;0.80;;;;;;;0.20;100.00;100696.19;5111346;29;20288;-76
2023/02/26 01:36:09;;;;;;;4.38;0.73;;;;;;;0.16;100.00;100695.28;5108478;29;20039;-76
2023/02/26 01:38:48;;;;;;;4.10;1.10;;;;;;;0.17;100.00;100703.84;5107148;29;20489;-76
2023/02/26 01:41:24;;;;;;;8.00;1.08;;;;;;;0.16;100.00;100705.56;5110828;29;20074;-77
2023/02/26 01:44:07;;;;;;;3.35;1.00;;;;;;;0.09;100.00;100703.81;5111704;29;20039;-76
2023/02/26 01:47:01;;;;;;;3.42;0.77;;;;;;;0.06;100.00;100703.75;5108199;29;20036;-77
2023/02/26 01:49:32;;;;;;;2.38;0.75;;;;;;;0.07;100.00;100705.47;5108570;29;20378;-77
2023/02/26 01:52:04;;;;;;;4.90;0.88;;;;;;;0.15;100.00;100708.97;5110346;29;20050;-77
2023/02/26 01:54:37;;;;;;;6.55;1.30;;;;;;;0.23;100.00;100712.47;5105595;29;20038;-76
2023/02/26 01:57:16;;;;;;;3.58;0.85;;;;;;;0.22;100.00;100717.59;5111530;29;20461;-77
2023/02/26 01:59:50;;;;;;;10.35;1.40;;;;;;;0.14;100.00;100714.09;5097407;29;20126;-78
2023/02/26 02:02:22;;;;;;;3.25;0.65;;;;;;;0.14;100.00;100720.09;5109084;29;20489;-78
2023/02/26 02:04:52;;;;;;;5.45;1.17;;;;;;;0.18;100.00;100724.41;5106227;29;20046;-78
2023/02/26 02:07:22;;;;;;;9.32;0.90;;;;;;;0.26;100.00;100729.63;5108799;29;20164;-77
2023/02/26 02:09:53;;;;;;;3.13;0.80;;;;;;;0.24;100.00;100739.03;5105679;29;20493;-77
2023/02/26 02:12:32;;;;;;;2.50;0.90;;;;;;;0.20;100.00;100733.00;5106078;29;21162;-77
2023/02/26 02:15:14;;;;;;;6.13;1.00;;;;;;;0.23;100.00;100743.28;5092829;29;20103;-77
2023/02/26 02:17:44;;;;;;;7.60;1.10;;;;;;;0.20;100.00;100738.13;5107493;29;20211;-78
2023/02/26 02:20:40;;;;;;;5.40;0.80;;;;;;;0.15;100.00;100737.25;5107099;29;20054;-78
2023/02/26 02:23:26;;;;;;;2.07;0.47;;;;;;;0.15;100.00;100744.94;5108122;29;20054;-78
2023/02/26 02:26:21;;;;;;;4.40;1.00;;;;;;;0.17;100.00;100742.38;5109532;29;20122;-76
2023/02/26 02:28:57;;;;;;;1.95;0.60;;;;;;;0.17;100.00;100747.50;5109937;29;20580;-77
2023/02/26 02:31:36;;;;;;;3.25;0.90;;;;;;;0.27;100.00;100744.19;5089741;29;20028;-74
2023/02/26 02:34:12;;;;;;;5.13;0.95;;;;;;;0.26;100.00;100747.59;5108135;29;20143;-76
2023/02/26 02:36:52;;;;;;;3.60;0.80;;;;;;;0.26;100.00;100758.75;5108028;29;20023;-76
2023/02/26 02:39:28;;;;;;;3.95;0.80;;;;;;;0.23;100.00;100763.84;5089024;29;20027;-76
2023/02/26 02:42:07;;;;;;;1.40;0.73;;;;;;;0.17;100.00;100758.66;5102429;29;20032;-77
2023/02/26 02:44:42;;;;;;;2.25;0.60;;;;;;;0.16;100.00;100758.63;5111635;29;20027;-78
2023/02/26 02:47:15;;;;;;;4.60;0.70;;;;;;;0.10;100.00;100766.31;5110180;29;20026;-74
2023/02/26 02:50:14;;;;;;;2.47;0.68;;;;;;;0.16;100.00;100764.66;5103759;29;20418;-77
2023/02/26 02:52:52;;;;;;;1.38;0.50;;;;;;;0.18;100.00;100769.81;5110236;29;20043;-76
2023/02/26 02:55:35;;;;;;;3.55;0.70;;;;;;;0.16;100.00;100772.34;5110244;29;20099;-77
2023/02/26 02:58:21;;;;;;;4.38;0.60;;;;;;;0.15;100.00;100775.78;5111272;29;20035;-78
2023/02/26 03:00:57;;;;;;;4.78;0.95;;;;;;;0.10;100.00;100774.88;5108096;29;20513;-77
2023/02/26 03:03:27;;;;;;;1.88;0.60;;;;;;;0.14;100.00;100781.75;5109436;29;20509;-77
2023/02/26 03:05:57;;;;;;;4.88;0.70;;;;;;;0.10;100.00;100780.03;5114518;29;20038;-76
2023/02/26 03:08:33;;;;;;;1.85;0.60;;;;;;;0.15;100.00;100786.06;5107098;29;20034;-77
2023/02/26 03:11:03;;;;;;;1.25;0.43;;;;;;;0.14;100.00;100788.59;5114158;29;21259;-73
2023/02/26 03:13:34;;;;;;;1.63;0.57;;;;;;;0.21;100.00;100790.41;5112381;29;20585;-77
2023/02/26 03:16:19;;;;;;;4.07;0.63;;;;;;;0.15;100.00;100790.31;5111169;29;20042;-77
2023/02/26 03:19:02;;;;;;;4.25;0.60;;;;;;;0.17;100.00;100794.63;5106836;29;20039;-77
2023/02/26 03:21:42;;;;;;;1.20;0.60;;;;;;;0.22;100.00;100802.38;5104677;29;20206;-78
2023/02/26 03:24:36;;;;;;;2.42;0.43;;;;;;;0.24;100.00;100808.41;5106715;29;20556;-77
2023/02/26 03:27:23;;;;;;;4.82;1.00;;;;;;;0.21;100.00;100811.78;5115659;29;20686;-77
2023/02/26 03:30:00;;;;;;;1.50;0.30;;;;;;;0.15;100.00;100818.56;5112317;29;20019;-76
2023/02/26 03:32:40;;;;;;;3.28;0.65;;;;;;;0.18;100.00;100822.03;5107375;29;20106;-77
2023/02/26 03:35:14;;;;;;;2.28;0.50;;;;;;;0.25;100.00;100817.81;5110874;29;20481;-77
2023/02/26 03:37:56;;;;;;;3.50;0.70;;;;;;;0.26;100.00;100816.97;5106559;29;20035;-76
2023/02/26 03:40:32;;;;;;;4.32;0.70;;;;;;;0.26;100.00;100837.53;5107679;29;20539;-76
2023/02/26 03:43:27;;;;;;;2.83;0.57;;;;;;;0.27;100.00;100827.28;5106365;29;20196;-78
2023/02/26 03:46:02;;;;;;;2.22;0.80;;;;;;;0.22;100.00;100839.22;5095025;29;20505;-77
2023/02/26 03:48:35;;;;;;;2.53;0.43;;;;;;;0.24;100.00;100842.66;5110927;29;20030;-77
2023/02/26 03:51:13;;;;;;;3.22;0.70;;;;;;;0.29;100.00;100840.13;5109367;29;20307;-77
2023/02/26 03:53:52;;;;;;;2.92;0.70;;;;;;;0.18;100.00;100847.72;5084272;29;20023;-78
2023/02/26 03:56:29;;;;;;;1.23;0.40;;;;;;;0.25;100.00;100853.81;5102053;29;20036;-77
2023/02/26 03:59:00;;;;;;;2.15;0.60;;;;;;;0.31;100.00;100865.00;5108075;29;20032;-77
2023/02/26 04:01:39;;;;;;;1.05;0.52;;;;;;;0.31;100.00;100865.00;5102742;29;20496;-76
2023/02/26 04:04:24;;;;;;;2.70;0.82;;;;;;;0.35;100.00;100856.47;5106556;29;20489;-77
2023/02/26 04:06:54;;;;;;;3.60;0.85;;;;;;;0.36;100.00;100872.78;5107028;29;20031;-77
2023/02/26 04:09:25;;;;;;;4.70;0.65;;;;;;;0.35;100.00;100874.47;5089949;29;20034;-77
2023/02/26 04:11:57;;;;;;;2.38;0.68;;;;;;;0.47;100.00;100879.72;5103089;29;20027;-77
2023/02/26 04:14:27;;;;;;;2.20;0.60;;;;;;;0.51;100.00;100878.03;5106511;29;20106;-76
2023/02/26 04:16:58;;;;;;;1.83;0.60;;;;;;;0.48;100.00;100878.00;5107256;29;20119;-76
2023/02/26 04:19:28;;;;;;;2.60;0.80;;;;;;;0.42;100.00;100886.50;5104966;29;20039;-77
2023/02/26 04:21:58;;;;;;;2.47;0.90;;;;;;;0.53;100.00;100891.78;5101557;29;20390;-77
2023/02/26 04:24:28;;;;;;;1.88;0.60;;;;;;;0.52;100.00;100893.47;5111159;29;20032;-76
2023/02/26 04:26:59;;;;;;;2.85;0.50;;;;;;;0.50;100.00;100887.47;5115746;29;20031;-76
2023/02/26 04:29:29;;;;;;;2.78;0.50;;;;;;;0.47;100.00;100895.16;5093144;29;20114;-76
2023/02/26 04:32:00;;;;;;;1.10;0.60;;;;;;;0.49;100.00;100893.47;5106416;29;20031;-77
2023/02/26 04:34:31;;;;;;;2.42;0.70;;;;;;;0.54;100.00;100899.50;5107119;29;20065;-77
2023/02/26 04:37:01;;;;;;;3.55;0.57;;;;;;;0.53;100.00;100913.19;5111727;29;20501;-77
2023/02/26 04:39:31;;;;;;;4.82;1.05;;;;;;;0.56;100.00;100907.22;5109196;29;20063;-76
2023/02/26 04:42:03;;;;;;;5.22;1.05;;;;;;;0.52;100.00;100914.03;5092212;29;20557;-77
2023/02/26 04:44:33;;;;;;;4.45;0.63;;;;;;;0.61;100.00;100914.16;5114038;29;20040;-77
2023/02/26 04:47:04;;;;;;;4.70;1.20;;;;;;;0.64;100.00;100916.75;5107490;29;20033;-77
2023/02/26 04:49:34;;;;;;;1.77;0.70;;;;;;;0.63;100.00;100915.03;5103737;29;20196;-77
2023/02/26 04:52:05;;;;;;;2.30;0.60;;;;;;;0.54;100.00;100917.50;5107896;29;20031;-78
2023/02/26 04:54:36;;;;;;;3.40;0.77;;;;;;;0.54;100.00;100924.34;5108962;29;20038;-77
2023/02/26 04:57:07;;;;;;;1.60;0.65;;;;;;;0.52;100.00;100932.03;5106530;29;20042;-76
2023/02/26 04:59:37;;;;;;;4.47;0.77;;;;;;;0.59;100.00;100928.66;5092706;29;20489;-77
2023/02/26 05:02:08;;;;;;;3.35;0.70;;;;;;;0.52;100.00;100932.03;5105394;29;20035;-77
2023/02/26 05:04:38;;;;;;;2.80;0.95;;;;;;;0.63;100.00;100939.84;5105526;29;20676;-77
2023/02/26 05:07:08;;;;;;;3.13;0.65;;;;;;;0.68;100.00;100943.31;5110762;29;20063;-78
2023/02/26 05:09:39;;;;;;;6.82;0.60;;;;;;;0.62;100.00;100946.72;5110563;29;20564;-77
2023/02/26 05:12:09;;;;;;;2.75;0.60;;;;;;;0.56;100.00;100932.94;5108854;29;20489;-77
2023/02/26 05:14:39;;;;;;;2.35;0.60;;;;;;;0.63;100.00;100940.75;5108274;29;20031;-77
2023/02/26 05:17:10;;;;;;;3.38;0.70;;;;;;;0.59;100.00;100949.25;5112947;29;20051;-75
2023/02/26 05:19:40;;;;;;;2.85;0.65;;;;;;;0.55;100.00;100942.34;5109118;29;20666;-77
2023/02/26 05:22:11;;;;;;;2.25;0.57;;;;;;;0.55;100.00;100950.06;5083773;29;20074;-77
2023/02/26 05:24:42;;;;;;;2.78;0.70;;;;;;;0.53;100.00;100954.34;5088355;29;20037;-76
2023/02/26 05:27:13;;;;;;;4.13;0.60;;;;;;;0.49;100.00;100967.13;5114317;29;20086;-74
2023/02/26 05:29:44;;;;;;;2.38;0.63;;;;;;;0.51;100.00;100962.84;5109757;29;20028;-78
2023/02/26 05:32:14;;;;;;;2.63;0.70;;;;;;;0.52;100.00;100970.59;5105016;29;20496;-78
2023/02/26 05:34:45;;;;;;;3.38;0.60;;;;;;;0.39;100.00;100965.31;5105998;29;20031;-77
2023/02/26 05:37:15;;;;;;;5.47;0.55;;;;;;;0.40;100.00;100972.19;5109794;29;20031;-77
2023/02/26 05:39:45;;;;;;;5.20;0.68;;;;;;;0.31;100.00;100972.94;5107374;29;20130;-77
2023/02/26 05:42:16;;;;;;;1.55;0.63;;;;;;;0.28;100.00;100975.47;5112693;29;20414;-77
2023/02/26 05:44:46;;;;;;;1.83;0.68;;;;;;;0.25;100.00;100983.13;5100868;29;20098;-77
2023/02/26 05:47:16;;;;;;;1.90;0.65;;;;;;;0.12;100.00;100986.41;5094192;29;20189;-77
2023/02/26 05:49:47;;;;;;;2.83;0.50;;;;;;;0.13;100.00;100995.84;5108685;29;20031;-77
2023/02/26 05:52:17;;;;;;;3.38;0.60;;;;;;;0.05;100.00;100997.44;5100825;29;20035;-77
2023/02/26 05:54:47;;;;;;;2.05;0.65;;;;;;;0.11;100.00;101010.38;5089561;29;20032;-77
2023/02/26 05:57:17;;;;;;;1.42;0.40;;;;;;;0.06;100.00;101017.13;5104855;29;20027;-77
2023/02/26 05:59:48;;;;;;;6.38;0.50;;;;;;;0.07;100.00;101024.00;5109339;29;20095;-78
2023/02/26 06:02:18;;;;;;;2.17;0.60;;;;;;;0.02;100.00;101024.81;5103744;29;20046;-77
2023/02/26 06:04:49;;;;;;;0.50;0.35;;;;;;;0.05;100.00;101028.25;5105532;29;20039;-77
2023/02/26 06:07:19;;;;;;;3.88;0.47;;;;;;;-0.05;100.00;101037.53;5108101;29;20482;-77
2023/02/26 06:09:49;;;;;;;5.82;0.60;;;;;;;0.02;100.00;101035.09;5107857;29;20040;-77
2023/02/26 06:12:19;;;;;;;3.05;0.50;;;;;;;-0.03;100.00;101042.72;5106547;29;20034;-77
2023/02/26 06:14:51;;;;;;;2.60;0.63;;;;;;;-0.05;100.00;101052.97;5108550;29;20174;-78
2023/02/26 06:17:21;;;;;;;2.30;0.50;;;;;;;-0.07;100.00;101057.22;5110193;29;20109;-77
2023/02/26 06:19:51;;;;;;;4.03;0.65;;;;;;;-0.10;100.00;101064.84;5107896;29;20051;-78
2023/02/26 06:22:22;;;;;;;2.63;0.47;;;;;;;-0.11;100.00;101061.44;5084889;29;20019;-77
2023/02/26 06:24:53;;;;;;;2.53;0.70;;;;;;;-0.09;100.00;101069.13;5107751;29;20087;-77
2023/02/26 06:27:24;;;;;;;2.83;0.52;;;;;;;-0.11;100.00;101076.84;5113639;29;20518;-77
2023/02/26 06:29:55;;;;;;;3.83;0.50;;;;;;;-0.07;100.00;101076.03;5109187;29;20160;-77
2023/02/26 06:32:25;;;;;;;0.73;0.40;;;;;;;-0.03;100.00;101082.09;5108907;29;20478;-77
2023/02/26 06:34:55;;;;;;;1.10;0.47;;;;;;;-0.09;100.00;101089.69;5105867;29;20031;-77
2023/02/26 06:37:26;;;;;;;2.10;0.45;;;;;;;-0.03;99.57;101086.38;5088878;29;20057;-77
2023/02/26 06:39:56;;;;;;;3.40;0.65;;;;;;;0.08;99.66;101095.09;5109508;29;20035;-78
2023/02/26 06:42:26;;;;;;;1.50;0.47;;;;;;;0.07;98.87;101100.22;5102798;29;20031;-77
2023/02/26 06:44:57;;;;;;;3.92;0.80;;;;;;;0.04;98.50;101106.16;5108185;29;20441;-78
2023/02/26 06:47:27;;;;;;;1.80;0.45;;;;;;;0.12;98.39;101114.88;5108696;29;20110;-78
2023/02/26 06:49:57;;;;;;;4.03;0.55;;;;;;;0.16;98.11;101114.06;5107390;29;20020;-77
2023/02/26 06:52:28;;;;;;;3.47;0.73;;;;;;;0.09;97.45;101113.94;5102145;29;20035;-77
2023/02/26 06:54:58;;;;;;;1.65;0.40;;;;;;;0.13;96.97;101110.56;5087786;29;20167;-77
2023/02/26 06:57:28;;;;;;;5.47;1.40;;;;;;;0.11;96.73;101122.53;5105328;29;20051;-77
2023/02/26 06:59:59;;;;;;;4.75;0.70;;;;;;;0.23;97.00;101122.72;5108619;29;20039;-78
2023/02/26 07:02:30;;;;;;;3.13;0.60;;;;;;;0.20;96.35;101128.69;5107813;29;20028;-78
2023/02/26 07:05:00;;;;;;;3.25;0.70;;;;;;;0.28;95.76;101124.53;5164549;23;20039;-69
2023/02/26 07:07:31;;;;;;;1.98;0.52;;;;;;;0.39;95.94;101125.53;5149845;28;20035;-70
2023/02/26 07:10:01;;;;;;;1.85;0.60;;;;;;;0.41;95.97;101134.13;5160185;28;20350;-70
2023/02/26 07:12:31;;;;;;;4.78;0.80;;;;;;;0.44;95.71;101138.44;5165558;28;20101;-70
2023/02/26 07:15:03;;;;;;;0.68;0.30;;;;;;;0.50;94.63;101149.69;5148240;28;20045;-71
2023/02/26 07:17:33;;;;;;;1.98;0.50;;;;;;;0.45;94.82;101153.03;5148751;28;20034;-70
2023/02/26 07:20:05;;;;;;;2.97;0.57;;;;;;;0.55;95.08;101163.44;5150117;28;20054;-70
2023/02/26 07:22:37;;;;;;;2.42;0.40;;;;;;;0.66;93.74;101161.91;5150428;28;20034;-70
2023/02/26 07:25:07;;;;;;;1.65;0.80;;;;;;;0.73;92.96;101168.84;5159212;28;20038;-70
2023/02/26 07:27:38;;;;;;;3.35;0.50;;;;;;;0.74;91.72;101175.72;5154313;28;20037;-70
2023/02/26 07:30:09;;;;;;;1.65;0.65;;;;;;;0.84;91.46;101182.72;5150009;28;20403;-70
2023/02/26 07:32:39;;;;;;;3.20;0.45;;;;;;;1.02;91.48;101182.06;5151475;28;20041;-70
2023/02/26 07:35:09;;;;;;;6.05;0.82;;;;;;;2.20;87.43;101180.72;5146715;28;20027;-71
2023/02/26 07:37:40;;;;;;;1.30;0.55;;;;;;;3.25;83.00;101181.28;5149589;28;20030;-70
2023/02/26 07:40:11;;;;;;;3.10;0.80;;;;;;;4.42;77.28;101177.97;5157232;28;20080;-71
2023/02/26 07:42:41;;;;;;;2.13;0.50;;;;;;;4.97;74.29;101182.16;5154140;28;20030;-70
2023/02/26 07:45:11;;;;;;;1.70;0.30;;;;;;;6.44;70.31;101168.28;5148104;28;20033;-71
2023/02/26 07:47:41;;;;;;;2.60;0.45;;;;;;;7.13;64.94;101177.91;5148865;28;20030;-71
2023/02/26 07:50:12;;;;;;;4.00;0.70;;;;;;;7.48;65.18;101182.63;5153259;28;20140;-71
2023/02/26 07:52:42;;;;;;;3.03;0.47;;;;;;;8.20;62.22;101178.97;5151521;28;20031;-71
2023/02/26 07:55:13;;;;;;;2.78;0.50;;;;;;;7.71;62.50;101190.13;5157135;28;20707;-71
2023/02/26 07:57:43;;;;;;;1.65;0.38;;;;;;;7.88;61.40;101189.00;5153017;28;20022;-71
2023/02/26 08:00:14;;;;;;;0.85;0.40;;;;;;;7.39;62.04;101195.75;5152209;28;20136;-71
2023/02/26 08:02:44;;;;;;;2.25;0.47;;;;;;;7.83;62.11;101193.41;5153388;28;20043;-71
2023/02/26 08:05:15;;;;;;;0.93;0.38;;;;;;;7.97;60.11;101198.41;5158101;28;20033;-71
2023/02/26 08:07:45;;;;;;;1.88;0.60;;;;;;;8.26;60.55;101197.13;5154807;28;20035;-71
2023/02/26 08:10:15;;;;;;;0.65;0.32;;;;;;;8.38;59.14;101201.25;5157818;28;20411;-70
2023/02/26 08:12:46;;;;;;;2.65;0.55;;;;;;;8.78;58.09;101207.50;5148691;28;20044;-71
2023/02/26 08:15:16;;;;;;;1.58;0.50;;;;;;;8.59;58.63;101203.50;5147840;28;20420;-71
2023/02/26 08:17:46;;;;;;;1.63;0.60;;;;;;;8.96;58.16;101218.44;5145509;28;20038;-71
2023/02/26 08:20:17;;;;;;;2.97;0.43;;;;;;;9.48;55.90;101208.69;5152855;28;20027;-71
2023/02/26 08:22:48;;;;;;;2.50;0.73;;;;;;;9.29;57.15;101213.41;5153251;28;20452;-70
2023/02/26 08:25:19;;;;;;;2.67;0.50;;;;;;;9.46;57.09;101219.16;5162751;28;20211;-71
2023/02/26 08:27:49;;;;;;;1.20;0.30;;;;;;;9.46;55.83;101231.34;5156546;28;20030;-71
2023/02/26 08:30:19;;;;;;;1.30;0.47;;;;;;;9.92;55.46;101225.09;5150700;28;20088;-71
2023/02/26 08:32:50;;;;;;;2.10;0.50;;;;;;;9.83;54.36;101224.44;5155464;28;20055;-71
2023/02/26 08:35:20;;;;;;;2.65;0.50;;;;;;;9.94;54.44;101235.50;5152224;28;20110;-71
2023/02/26 08:37:51;;;;;;;1.90;0.40;;;;;;;10.15;54.32;101233.28;5157019;28;20424;-71
2023/02/26 08:40:22;;;;;;;0.82;0.30;;;;;;;9.27;55.56;101241.28;5165844;28;20064;-71
2023/02/26 08:42:52;;;;;;;0.65;0.35;;;;;;;8.72;56.00;101244.94;5159296;28;20070;-71
2023/02/26 08:45:22;;;;;;;1.17;0.40;;;;;;;8.95;56.60;101248.00;5152483;28;20105;-71
2023/02/26 08:47:54;;;;;;;1.48;0.50;;;;;;;9.21;55.86;101250.97;5151647;28;20034;-71
2023/02/26 08:50:25;;;;;;;0.73;0.30;;;;;;;9.31;55.83;101257.75;5152635;28;20088;-71
2023/02/26 08:52:55;;;;;;;1.80;0.40;;;;;;;9.42;54.80;101263.59;5152547;28;20376;-71
2023/02/26 08:55:25;;;;;;;0.98;0.30;;;;;;;9.27;55.13;101266.50;5152941;28;20194;-70
2023/02/26 08:57:56;;;;;;;5.40;0.60;;;;;;;9.51;54.64;101266.03;5135204;28;20042;-71
2023/02/26 09:00:26;;;;;;;1.50;0.38;;;;;;;9.64;54.46;101264.91;5153944;28;20079;-71
2023/02/26 09:02:56;;;;;;;2.75;0.45;;;;;;;10.06;54.04;101266.59;5154682;28;20035;-71
2023/02/26 09:05:27;;;;;;;3.40;0.47;;;;;;;8.59;56.23;101279.88;5154530;28;20487;-71
2023/02/26 09:07:57;;;;;;;1.80;0.50;;;;;;;8.55;56.86;101283.44;5155737;28;20044;-71
2023/02/26 09:10:28;;;;;;;3.40;0.30;;;;;;;8.79;56.30;101283.06;5141436;28;20033;-71
2023/02/26 09:12:58;;;;;;;1.92;0.40;;;;;;;8.43;57.07;101290.59;5150133;28;20038;-71
2023/02/26 09:15:28;;;;;;;1.77;0.40;;;;;;;7.01;59.25;101302.78;5153019;28;20026;-71
2023/02/26 09:17:59;;;;;;;1.23;0.40;;;;;;;5.91;62.81;101310.53;5156389;28;20088;-70
2023/02/26 09:20:29;;;;;;;4.75;0.60;;;;;;;5.13;65.27;101318.53;5148158;28;20034;-70
2023/02/26 09:22:59;;;;;;;1.85;0.50;;;;;;;4.93;65.71;101322.00;5149550;28;20046;-71
2023/02/26 09:25:30;;;;;;;2.38;0.52;;;;;;;4.71;67.35;101331.53;5141848;28;20029;-70
2023/02/26 09:28:00;;;;;;;0.52;0.20;;;;;;;4.46;67.10;101327.19;5148668;28;20053;-70
2023/02/26 09:30:31;;;;;;;1.15;0.47;;;;;;;4.49;68.37;101334.09;5147860;28;20026;-71
2023/02/26 09:33:01;;;;;;;0.75;0.30;;;;;;;4.15;68.35;101330.59;5153255;28;20072;-70
2023/02/26 09:35:32;;;;;;;1.40;0.30;;;;;;;4.24;67.82;101337.50;5138458;28;20244;-70
2023/02/26 09:38:02;;;;;;;2.67;0.40;;;;;;;4.18;68.06;101333.22;5148956;28;20526;-70
2023/02/26 09:40:55;;;;;;;1.15;0.25;;;;;;;4.23;68.27;101340.94;5158127;28;20279;-70
2023/02/26 09:43:45;;;;;;;2.05;0.50;;;;;;;4.37;67.39;101334.09;5148377;28;20039;-70
2023/02/26 09:46:57;;;;;;;2.63;0.40;;;;;;;4.44;67.51;101338.44;5150526;28;20345;-70
2023/02/26 09:49:40;;;;;;;2.42;0.40;;;;;;;4.37;67.07;101334.97;5093659;29;20151;-70
2023/02/26 09:52:18;;;;;;;1.60;0.30;;;;;;;4.14;67.48;101340.94;5089208;29;20040;-70
2023/02/26 09:54:52;;;;;;;1.77;0.30;;;;;;;4.22;67.92;101339.22;5130253;28;20038;-69
2023/02/26 09:57:33;;;;;;;0.80;0.40;;;;;;;3.94;67.94;101343.47;5146136;28;20029;-70
2023/02/26 10:00:23;;;;;;;2.80;0.50;;;;;;;3.97;68.29;101353.81;5144144;28;20030;-70
2023/02/26 10:03:08;;;;;;;3.80;0.65;;;;;;;3.57;68.24;101348.47;5151540;28;20031;-70
2023/02/26 10:05:56;;;;;;;2.05;0.38;;;;;;;3.99;69.39;101348.66;5151900;28;20077;-70
2023/02/26 10:08:45;;;;;;;1.17;0.40;;;;;;;3.86;68.70;101346.88;5157607;28;20046;-70
2023/02/26 10:11:44;;;;;;;0.98;0.30;;;;;;;3.81;69.03;101357.19;5150248;28;20109;-70
2023/02/26 10:14:22;;;;;;;1.50;0.40;;;;;;;3.58;70.02;101357.09;5151853;28;20456;-70
2023/02/26 10:16:58;;;;;;;1.15;0.30;;;;;;;3.72;70.37;101351.13;5150618;28;20403;-70
2023/02/26 10:19:37;;;;;;;2.47;0.30;;;;;;;3.76;66.86;101353.75;5130709;28;20123;-70
2023/02/26 10:22:30;;;;;;;0.52;0.20;;;;;;;4.01;67.61;101367.63;5148444;28;20079;-70
2023/02/26 10:25:21;;;;;;;1.05;0.30;;;;;;;3.75;66.80;101362.34;5149363;28;20043;-70
2023/02/26 10:28:18;;;;;;;1.33;0.30;;;;;;;3.45;65.35;101366.50;5132164;28;20810;-70
2023/02/26 10:31:24;;;;;;;2.13;0.30;;;;;;;3.62;66.89;101380.38;5147760;28;20038;-70
2023/02/26 10:33:57;;;;;;;2.03;0.38;;;;;;;3.97;67.05;101374.50;5145453;28;20038;-70
2023/02/26 10:36:33;;;;;;;2.85;0.52;;;;;;;3.22;68.08;101391.31;5151031;28;20022;-70
2023/02/26 10:39:20;;;;;;;7.90;0.45;;;;;;;3.56;69.81;101372.59;5137946;28;20043;-70
2023/02/26 10:41:52;;;;;;;0.47;0.22;;;;;;;3.48;68.04;101381.16;5151904;28;20117;-70
2023/02/26 10:44:38;;;;;;;3.45;0.60;;;;;;;3.49;67.33;101393.22;5154502;28;20117;-70
2023/02/26 10:47:19;;;;;;;3.95;0.40;;;;;;;3.68;65.56;101390.75;5149588;28;20026;-70
2023/02/26 10:49:53;;;;;;;0.82;0.28;;;;;;;3.86;64.82;101396.88;5145381;28;20046;-70
2023/02/26 10:52:27;;;;;;;0.93;0.30;;;;;;;4.00;63.14;101399.50;5147625;28;20246;-69
2023/02/26 10:55:16;;;;;;;0.35;0.20;;;;;;;3.99;63.60;101388.28;5150873;28;20039;-70
2023/02/26 10:57:55;;;;;;;2.35;0.30;;;;;;;3.58;64.67;101401.91;5148908;28;20094;-70
2023/02/26 11:00:26;;;;;;;4.22;0.45;;;;;;;3.72;63.51;101401.13;5147461;28;20496;-70
2023/02/26 11:02:57;;;;;;;2.17;0.40;;;;;;;3.89;64.42;101396.88;5148020;28;20030;-70
2023/02/26 11:05:29;;;;;;;1.02;0.30;;;;;;;3.94;63.98;101402.94;5151460;28;20169;-71
2023/02/26 11:08:12;;;;;;;2.47;0.40;;;;;;;3.99;63.57;101408.97;5150100;28;20053;-70
2023/02/26 11:10:52;;;;;;;2.17;0.50;;;;;;;4.02;64.09;101402.97;5136236;28;20030;-70
2023/02/26 11:13:24;;;;;;;2.88;0.80;;;;;;;4.21;64.93;101400.47;5149231;28;20433;-70
2023/02/26 11:16:00;;;;;;;2.35;0.40;;;;;;;4.17;66.47;101406.50;5152875;28;20492;-70
2023/02/26 11:18:38;;;;;;;1.90;0.40;;;;;;;4.11;65.25;101405.59;5138001;28;20527;-70
2023/02/26 11:21:18;;;;;;;1.92;0.40;;;;;;;4.08;67.14;101397.81;5152684;28;20042;-70
2023/02/26 11:23:55;;;;;;;2.53;0.40;;;;;;;4.12;66.17;101400.41;5151001;28;20034;-70
2023/02/26 11:26:30;;;;;;;2.35;0.43;;;;;;;4.06;65.32;101404.69;5149889;28;20114;-70
2023/02/26 11:29:01;;;;;;;0.68;0.40;;;;;;;4.01;65.98;101402.13;5150911;28;20034;-69
2023/02/26 11:31:32;;;;;;;1.58;0.40;;;;;;;4.09;65.37;101408.16;5156793;28;20073;-70
2023/02/26 11:34:07;;;;;;;2.33;0.40;;;;;;;4.03;65.45;101408.16;5158581;28;20081;-70
2023/02/26 11:36:40;;;;;;;0.85;0.35;;;;;;;4.06;63.92;101409.88;5157798;28;20043;-70
2023/02/26 11:39:21;;;;;;;0.88;0.30;;;;;;;4.01;64.44;101412.47;5161661;28;20026;-70
2023/02/26 11:41:56;;;;;;;1.48;0.45;;;;;;;4.16;64.65;101409.91;5136294;28;20136;-70
2023/02/26 11:44:36;;;;;;;2.50;0.30;;;;;;;4.26;64.04;101411.69;5150501;28;20484;-70
2023/02/26 11:47:13;;;;;;;2.10;0.40;;;;;;;4.02;63.67;101410.72;5151873;28;20526;-70
2023/02/26 11:49:50;;;;;;;1.33;0.30;;;;;;;4.34;64.92;101407.41;5151750;28;20405;-70
2023/02/26 11:52:20;;;;;;;2.25;0.40;;;;;;;4.42;63.02;101409.97;5151927;28;20034;-70
2023/02/26 11:54:59;;;;;;;0.70;0.20;;;;;;;4.47;63.18;101401.38;5154179;28;20542;-70
2023/02/26 11:57:31;;;;;;;1.17;0.30;;;;;;;4.22;61.62;101402.19;5161510;28;20065;-70
2023/02/26 12:00:18;;;;;;;1.25;0.20;;;;;;;3.89;62.36;101404.66;5155084;28;20484;-69
2023/02/26 12:02:48;;;;;;;1.20;0.40;;;;;;;4.03;62.25;101405.56;5156944;28;20050;-70